createdAt,value
2018-11-23T00:00:53.322Z,11.60
2018-11-23T00:03:21.786Z,11.87
2018-11-23T00:05:50.283Z,13.73
2018-11-23T00:08:18.763Z,11.87
2018-11-23T00:10:47.714Z,11.67
2018-11-23T00:13:16.188Z,12.63
2018-11-23T00:15:44.669Z,14.40
2018-11-23T00:18:13.142Z,11.93
2018-11-23T00:20:41.610Z,13.07
2018-11-23T00:23:10.083Z,12.60
2018-11-23T00:25:38.611Z,12.47
2018-11-23T00:28:07.588Z,12.03
2018-11-23T00:30:36.084Z,13.07
2018-11-23T00:33:04.594Z,13.67
2018-11-23T00:35:33.055Z,12.57
2018-11-23T00:38:01.554Z,11.47
2018-11-23T00:40:32.034Z,11.03
2018-11-23T00:43:01.016Z,14.00
2018-11-23T00:45:29.625Z,11.50
2018-11-23T00:47:58.882Z,11.37
2018-11-23T00:50:27.765Z,10.23
2018-11-23T00:52:57.381Z,11.87
2018-11-23T00:55:26.667Z,11.37
2018-11-23T00:57:55.150Z,11.77
2018-11-23T01:00:26.738Z,12.67
2018-11-23T01:02:56.286Z,10.47
2018-11-23T01:05:24.812Z,14.80
2018-11-23T01:07:53.286Z,13.80
2018-11-23T01:10:22.889Z,11.33
2018-11-23T01:12:52.627Z,12.40
2018-11-23T01:15:21.194Z,13.40
2018-11-23T01:17:49.714Z,10.73
2018-11-23T01:20:19.506Z,10.53
2018-11-23T01:22:48.407Z,10.50
2018-11-23T01:25:18.310Z,10.07
2018-11-23T01:27:48.010Z,12.80
2018-11-23T01:30:19.773Z,9.70
2018-11-23T01:32:48.647Z,10.43
2018-11-23T01:35:17.218Z,11.47
2018-11-23T01:37:45.685Z,13.63
2018-11-23T01:40:16.963Z,12.50
2018-11-23T01:42:45.925Z,11.87
2018-11-23T01:45:14.762Z,10.37
2018-11-23T01:47:43.250Z,13.10
2018-11-23T01:50:15.331Z,18.07
2018-11-23T01:52:44.923Z,20.63
2018-11-23T01:55:14.129Z,16.87
2018-11-23T01:57:43.017Z,17.43
2018-11-23T02:00:14.505Z,16.10
2018-11-23T02:02:43.401Z,14.93
2018-11-23T02:05:11.994Z,13.37
2018-11-23T02:07:40.612Z,15.97
2018-11-23T02:10:10.437Z,15.37
2018-11-23T02:12:38.903Z,13.57
2018-11-23T02:15:11.034Z,14.67
2018-11-23T02:17:39.485Z,17.17
2018-11-23T02:20:09.650Z,15.63
2018-11-23T02:22:38.537Z,15.40
2018-11-23T02:25:07.337Z,16.33
2018-11-23T02:27:35.800Z,16.53
2018-11-23T02:30:06.474Z,14.30
2018-11-23T02:32:34.938Z,15.67
2018-11-23T02:35:03.446Z,18.50
2018-11-23T02:37:32.339Z,16.90
2018-11-23T02:40:00.802Z,17.93
2018-11-23T02:42:29.300Z,21.30
2018-11-23T02:44:57.762Z,14.07
2018-11-23T02:47:26.210Z,13.73
2018-11-23T02:49:54.679Z,17.03
2018-11-23T02:52:23.127Z,13.23
2018-11-23T02:54:51.629Z,19.27
2018-11-23T02:57:20.098Z,15.67
2018-11-23T02:59:48.561Z,16.17
2018-11-23T03:02:17.036Z,14.10
2018-11-23T03:04:45.488Z,13.50
2018-11-23T03:07:13.954Z,14.77
2018-11-23T03:09:42.421Z,15.77
2018-11-23T03:12:10.866Z,14.20
2018-11-23T03:14:39.330Z,15.03
2018-11-23T03:17:07.792Z,15.13
2018-11-23T03:19:36.230Z,14.77
2018-11-23T03:22:04.912Z,14.93
2018-11-23T03:24:33.363Z,16.47
2018-11-23T03:27:01.813Z,15.07
2018-11-23T03:29:30.273Z,14.40
2018-11-23T03:31:58.754Z,14.30
2018-11-23T03:34:27.209Z,13.37
2018-11-23T03:36:55.686Z,13.63
2018-11-23T03:39:24.140Z,14.67
2018-11-23T03:41:52.597Z,13.43
2018-11-23T03:44:21.049Z,15.27
2018-11-23T03:46:49.541Z,13.83
2018-11-23T03:49:18.018Z,11.63
2018-11-23T03:51:46.467Z,13.57
2018-11-23T03:54:14.916Z,12.07
2018-11-23T03:56:43.362Z,12.73
2018-11-23T03:59:11.833Z,14.83
2018-11-23T04:01:40.679Z,12.03
2018-11-23T04:04:09.152Z,14.97
2018-11-23T04:06:37.641Z,14.27
2018-11-23T04:09:08.130Z,14.40
2018-11-23T04:11:36.970Z,13.43
2018-11-23T04:14:05.643Z,11.70
2018-11-23T04:16:34.126Z,13.13
2018-11-23T04:19:02.585Z,11.33
2018-11-23T04:21:31.034Z,13.27
2018-11-23T04:23:59.486Z,14.07
2018-11-23T04:26:28.026Z,14.73
2018-11-23T04:28:56.461Z,13.53
2018-11-23T04:31:24.941Z,13.60
2018-11-23T04:33:53.391Z,15.87
2018-11-23T04:36:21.862Z,12.00
2018-11-23T04:38:50.342Z,9.90
2018-11-23T04:41:19.121Z,11.70
2018-11-23T04:43:47.954Z,10.60
2018-11-23T04:46:17.351Z,12.07
2018-11-23T04:48:46.039Z,11.63
2018-11-23T04:51:14.497Z,13.83
2018-11-23T04:53:42.937Z,13.07
2018-11-23T04:56:11.379Z,12.97
2018-11-23T04:58:41.302Z,13.13
2018-11-23T05:01:09.771Z,12.27
2018-11-23T05:03:38.940Z,13.00
2018-11-23T05:06:07.449Z,14.33
2018-11-23T05:08:35.932Z,14.23
2018-11-23T05:11:04.455Z,14.10
2018-11-23T05:13:33.032Z,15.20
2018-11-23T05:16:01.601Z,13.37
2018-11-23T05:18:30.087Z,14.00
2018-11-23T05:20:58.845Z,11.60
2018-11-23T05:23:28.712Z,13.07
2018-11-23T05:25:58.699Z,12.67
2018-11-23T05:28:27.173Z,14.77
2018-11-23T05:30:56.448Z,15.23
2018-11-23T05:33:25.171Z,16.57
2018-11-23T05:35:53.719Z,11.80
2018-11-23T05:38:22.230Z,14.97
2018-11-23T05:40:50.711Z,13.27
2018-11-23T05:43:19.216Z,11.70
2018-11-23T05:45:47.764Z,12.37
2018-11-23T05:48:16.258Z,17.60
2018-11-23T05:50:45.201Z,15.70
2018-11-23T05:53:14.109Z,13.30
2018-11-23T05:55:42.607Z,14.10
2018-11-23T05:58:11.158Z,12.97
2018-11-23T06:00:39.761Z,11.27
2018-11-23T06:03:08.394Z,15.87
2018-11-23T06:05:38.142Z,12.50
2018-11-23T06:08:06.677Z,25.33
2018-11-23T06:10:35.194Z,15.53
2018-11-23T06:13:03.665Z,16.87
2018-11-23T06:15:32.180Z,16.83
2018-11-23T06:18:00.642Z,13.17
2018-11-23T06:20:29.141Z,10.23
2018-11-23T06:22:57.600Z,11.53
2018-11-23T06:25:32.872Z,15.57
2018-11-23T06:28:01.339Z,15.03
2018-11-23T06:30:29.817Z,15.13
2018-11-23T06:33:09.428Z,12.20
2018-11-23T06:35:38.173Z,13.90
2018-11-23T06:38:06.666Z,14.30
2018-11-23T06:40:35.122Z,14.70
2018-11-23T06:43:03.641Z,14.83
2018-11-23T06:45:35.324Z,15.93
2018-11-23T06:48:03.929Z,12.83
2018-11-23T06:50:32.387Z,14.77
2018-11-23T06:53:01.286Z,17.07
2018-11-23T06:55:29.761Z,16.17
2018-11-23T06:57:58.239Z,15.57
2018-11-23T07:00:26.689Z,16.43
2018-11-23T07:02:59.102Z,16.30
2018-11-23T07:05:23.687Z,14.80
2018-11-23T07:07:53.063Z,20.10
2018-11-23T07:10:21.537Z,18.23
2018-11-23T07:12:50.022Z,16.50
2018-11-23T07:15:18.563Z,23.30
2018-11-23T07:17:47.016Z,20.60
2018-11-23T07:20:15.578Z,20.50
2018-11-23T07:22:44.490Z,21.67
2018-11-23T07:25:13.970Z,20.73
2018-11-23T07:27:42.954Z,18.97
2018-11-23T07:30:19.130Z,20.83
2018-11-23T07:32:47.593Z,18.23
2018-11-23T07:35:16.502Z,17.97
2018-11-23T07:37:44.985Z,16.83
2018-11-23T07:40:30.694Z,21.93
2018-11-23T07:42:59.220Z,19.50
2018-11-23T07:45:27.939Z,16.90
2018-11-23T07:47:56.412Z,18.23
2018-11-23T07:50:24.885Z,18.63
2018-11-23T07:52:53.383Z,15.77
2018-11-23T07:55:21.852Z,18.77
2018-11-23T07:57:50.321Z,16.37
2018-11-23T08:00:20.173Z,15.23
2018-11-23T08:02:49.108Z,21.13
2018-11-23T08:05:18.484Z,16.50
2018-11-23T08:07:46.963Z,19.53
2018-11-23T08:10:15.288Z,17.10
2018-11-23T08:12:45.954Z,19.77
2018-11-23T08:15:17.897Z,21.17
2018-11-23T08:17:46.773Z,22.53
2018-11-23T08:20:17.457Z,21.07
2018-11-23T08:22:46.119Z,18.87
2018-11-23T08:25:15.751Z,21.07
2018-11-23T08:27:45.138Z,23.17
2018-11-23T08:30:23.761Z,22.17
2018-11-23T08:32:53.245Z,22.47
2018-11-23T08:35:21.764Z,20.70
2018-11-23T08:37:50.250Z,27.23
2018-11-23T08:40:22.826Z,25.47
2018-11-23T08:42:52.153Z,24.37
2018-11-23T08:45:22.019Z,28.73
2018-11-23T08:47:50.983Z,26.00
2018-11-23T08:50:26.069Z,26.97
2018-11-23T08:52:54.557Z,27.60
2018-11-23T08:55:23.523Z,35.60
2018-11-23T08:57:53.102Z,26.37
2018-11-23T09:00:22.053Z,36.13
2018-11-23T09:02:51.863Z,34.40
2018-11-23T09:05:20.385Z,31.13
2018-11-23T09:07:50.050Z,35.27
2018-11-23T09:10:20.031Z,27.53
2018-11-23T09:12:50.258Z,32.67
2018-11-23T09:15:18.852Z,24.60
2018-11-23T09:17:47.367Z,27.60
2018-11-23T09:20:16.774Z,26.83
2018-11-23T09:22:45.318Z,33.83
2018-11-23T09:25:16.295Z,30.53
2018-11-23T09:27:44.790Z,38.03
2018-11-23T09:30:16.638Z,31.53
2018-11-23T09:32:45.746Z,31.10
2018-11-23T09:35:14.224Z,38.40
2018-11-23T09:37:43.031Z,30.93
2018-11-23T09:40:14.114Z,38.07
2018-11-23T09:42:42.828Z,29.27
2018-11-23T09:45:14.484Z,33.33
2018-11-23T09:47:44.184Z,27.33
2018-11-23T09:50:14.118Z,35.90
2018-11-23T09:52:42.910Z,34.70
2018-11-23T09:55:11.481Z,32.20
2018-11-23T09:57:40.288Z,31.00
2018-11-23T10:00:14.495Z,37.23
2018-11-23T10:02:43.495Z,39.13
2018-11-23T10:05:12.903Z,40.60
2018-11-23T10:07:41.986Z,31.80
2018-11-23T10:10:12.261Z,35.57
2018-11-23T10:12:41.002Z,35.27
2018-11-23T10:15:10.717Z,32.50
2018-11-23T10:17:39.197Z,36.07
2018-11-23T10:20:10.715Z,32.57
2018-11-23T10:22:39.210Z,33.50
2018-11-23T10:25:09.257Z,33.17
2018-11-23T10:27:38.196Z,32.10
2018-11-23T10:30:08.973Z,37.20
2018-11-23T10:32:37.432Z,34.63
2018-11-23T10:35:06.980Z,30.33
2018-11-23T10:37:35.434Z,34.23
2018-11-23T10:40:04.861Z,28.13
2018-11-23T10:42:33.346Z,37.80
2018-11-23T10:45:01.829Z,36.63
2018-11-23T10:47:30.686Z,34.53
2018-11-23T10:49:59.156Z,29.17
2018-11-23T10:52:27.643Z,31.97
2018-11-23T10:54:56.122Z,33.73
2018-11-23T10:57:24.575Z,31.03
2018-11-23T10:59:53.034Z,29.37
2018-11-23T11:02:26.943Z,35.00
2018-11-23T11:05:00.764Z,30.80
2018-11-23T11:07:29.228Z,35.20
2018-11-23T11:09:57.706Z,27.53
2018-11-23T11:12:26.219Z,31.37
2018-11-23T11:14:54.695Z,35.37
2018-11-23T11:17:23.161Z,29.07
2018-11-23T11:19:51.618Z,29.80
2018-11-23T11:22:20.106Z,28.37
2018-11-23T11:24:48.561Z,27.87
2018-11-23T11:27:17.016Z,28.90
2018-11-23T11:29:45.500Z,32.10
2018-11-23T11:32:14.105Z,25.67
2018-11-23T11:34:42.588Z,26.53
2018-11-23T11:37:11.088Z,26.13
2018-11-23T11:39:39.552Z,28.27
2018-11-23T11:42:08.097Z,22.07
2018-11-23T11:44:36.563Z,29.50
2018-11-23T11:47:05.622Z,21.90
2018-11-23T11:49:34.105Z,28.77
2018-11-23T11:52:02.610Z,32.10
2018-11-23T11:54:31.097Z,26.73
2018-11-23T11:56:59.579Z,33.07
2018-11-23T11:59:28.125Z,34.83
2018-11-23T12:01:56.592Z,27.67
2018-11-23T12:04:25.055Z,28.80
2018-11-23T12:06:53.515Z,27.80
2018-11-23T12:09:22.023Z,26.13
2018-11-23T12:11:50.669Z,24.80
2018-11-23T12:14:19.171Z,25.93
2018-11-23T12:16:47.661Z,27.07
2018-11-23T12:19:16.143Z,29.83
2018-11-23T12:21:44.626Z,25.60
2018-11-23T12:24:13.083Z,30.17
2018-11-23T12:26:41.687Z,25.77
2018-11-23T12:29:10.155Z,28.37
2018-11-23T12:31:38.638Z,27.23
2018-11-23T12:34:07.160Z,21.30
2018-11-23T12:37:59.820Z,26.90
2018-11-23T12:40:28.301Z,24.47
2018-11-23T12:42:56.778Z,22.73
2018-11-23T12:45:25.286Z,27.03
2018-11-23T12:47:53.794Z,29.07
2018-11-23T12:50:23.328Z,24.33
2018-11-23T12:52:51.888Z,25.30
2018-11-23T12:55:20.730Z,22.77
2018-11-23T12:57:49.225Z,26.77
2018-11-23T13:00:23.891Z,30.80
2018-11-23T13:02:54.134Z,20.13
2018-11-23T13:05:23.634Z,29.97
2018-11-23T13:07:53.160Z,26.67
2018-11-23T13:10:22.439Z,19.30
2018-11-23T13:12:51.438Z,24.60
2018-11-23T13:15:20.054Z,22.87
2018-11-23T13:17:48.807Z,27.10
2018-11-23T13:20:17.431Z,22.77
2018-11-23T13:22:46.014Z,21.93
2018-11-23T13:25:17.701Z,20.67
2018-11-23T13:27:46.304Z,24.43
2018-11-23T13:30:18.513Z,20.73
2018-11-23T13:32:47.018Z,20.97
2018-11-23T13:35:17.201Z,20.07
2018-11-23T13:37:45.694Z,20.83
2018-11-23T13:40:16.532Z,22.43
2018-11-23T13:42:45.325Z,25.93
2018-11-23T13:45:15.146Z,29.60
2018-11-23T13:47:43.744Z,24.10
2018-11-23T13:50:13.884Z,22.80
2018-11-23T13:52:43.449Z,24.27
2018-11-23T13:55:12.010Z,27.60
2018-11-23T13:57:40.898Z,19.27
2018-11-23T14:00:14.758Z,22.97
2018-11-23T14:02:43.738Z,23.53
2018-11-23T14:05:14.265Z,27.57
2018-11-23T14:07:43.824Z,25.13
2018-11-23T14:10:14.251Z,22.17
2018-11-23T14:12:43.299Z,27.37
2018-11-23T14:15:14.294Z,19.10
2018-11-23T14:17:43.528Z,17.47
2018-11-23T14:20:13.711Z,20.07
2018-11-23T14:22:43.043Z,24.40
2018-11-23T14:25:13.222Z,14.73
2018-11-23T14:27:42.305Z,16.13
2018-11-23T14:30:13.471Z,19.23
2018-11-23T14:32:42.197Z,21.67
2018-11-23T14:35:13.009Z,18.50
2018-11-23T14:37:41.943Z,16.20
2018-11-23T14:40:11.410Z,16.93
2018-11-23T14:42:41.071Z,19.00
2018-11-23T14:45:19.484Z,20.27
2018-11-23T14:47:48.568Z,21.43
2018-11-23T14:50:19.545Z,20.57
2018-11-23T14:52:49.230Z,22.93
2018-11-23T14:55:18.136Z,25.13
2018-11-23T14:57:47.384Z,23.47
2018-11-23T15:00:20.935Z,22.83
2018-11-23T15:02:50.890Z,28.00
2018-11-23T15:05:19.722Z,19.50
2018-11-23T15:07:48.434Z,17.43
2018-11-23T15:10:18.559Z,18.40
2018-11-23T15:12:48.594Z,22.43
2018-11-23T15:15:19.621Z,17.73
2018-11-23T15:17:49.411Z,18.97
2018-11-23T15:20:20.551Z,24.50
2018-11-23T15:22:50.752Z,23.57
2018-11-23T15:25:19.243Z,18.90
2018-11-23T15:27:47.725Z,21.50
2018-11-23T15:30:20.728Z,19.83
2018-11-23T15:32:49.260Z,20.23
2018-11-23T15:35:17.792Z,20.60
2018-11-23T15:37:46.293Z,32.07
2018-11-23T15:40:17.404Z,25.00
2018-11-23T15:42:46.389Z,22.57
2018-11-23T15:45:17.638Z,27.90
2018-11-23T15:47:46.114Z,26.60
2018-11-23T15:50:17.529Z,25.30
2018-11-23T15:52:46.486Z,22.57
2018-11-23T15:55:18.750Z,28.40
2018-11-23T15:57:47.961Z,26.73
2018-11-23T16:00:21.024Z,25.63
2018-11-23T16:02:49.944Z,30.53
2018-11-23T16:05:18.574Z,28.47
2018-11-23T16:07:47.489Z,31.60
2018-11-23T16:10:18.568Z,32.27
2018-11-23T16:12:48.455Z,31.10
2018-11-23T16:15:17.685Z,25.93
2018-11-23T16:17:46.386Z,28.77
2018-11-23T16:20:17.194Z,30.97
2018-11-23T16:22:47.844Z,30.47
2018-11-23T16:25:16.400Z,23.90
2018-11-23T16:29:09.376Z,23.47
2018-11-23T16:31:38.119Z,31.47
2018-11-23T16:34:06.785Z,31.43
2018-11-23T16:36:35.310Z,37.83
2018-11-23T16:39:05.796Z,29.10
2018-11-23T16:41:33.376Z,27.80
2018-11-23T16:44:01.868Z,34.53
2018-11-23T16:46:30.358Z,29.83
2018-11-23T16:48:58.811Z,34.77
2018-11-23T16:51:27.371Z,25.93
2018-11-23T16:53:55.848Z,28.03
2018-11-23T16:56:24.376Z,34.33
2018-11-23T16:58:52.899Z,32.30
2018-11-23T17:01:21.405Z,30.60
2018-11-23T17:03:50.384Z,29.10
2018-11-23T17:06:18.917Z,28.17
2018-11-23T17:08:47.431Z,27.60
2018-11-23T17:11:15.911Z,31.97
2018-11-23T17:13:44.510Z,25.30
2018-11-23T17:16:12.987Z,35.80
2018-11-23T17:18:41.490Z,37.97
2018-11-23T17:21:09.962Z,35.50
2018-11-23T17:23:38.456Z,35.13
2018-11-23T17:26:06.953Z,33.77
2018-11-23T17:28:35.429Z,32.67
2018-11-23T17:31:03.914Z,30.30
2018-11-23T17:33:32.530Z,36.87
2018-11-23T17:36:01.058Z,32.37
2018-11-23T17:38:29.547Z,33.63
2018-11-23T17:40:58.406Z,26.27
2018-11-23T17:43:33.750Z,22.40
2018-11-23T17:46:02.226Z,41.03
2018-11-23T17:48:30.761Z,33.27
2018-11-23T17:50:59.777Z,28.27
2018-11-23T17:53:28.900Z,30.97
2018-11-23T17:55:58.026Z,31.60
2018-11-23T17:58:26.718Z,32.87
2018-11-23T18:00:55.789Z,26.67
2018-11-23T18:03:24.324Z,26.20
2018-11-23T18:05:53.325Z,24.40
2018-11-23T18:08:21.975Z,25.73
2018-11-23T18:10:50.927Z,25.73
2018-11-23T18:13:19.509Z,25.87
2018-11-23T18:15:48.110Z,26.03
2018-11-23T18:18:17.115Z,23.83
2018-11-23T18:20:45.711Z,25.27
2018-11-23T18:23:14.292Z,24.87
2018-11-23T18:25:42.880Z,29.17
2018-11-23T18:28:11.490Z,23.27
2018-11-23T18:30:40.185Z,24.73
2018-11-23T18:33:09.022Z,21.07
2018-11-23T18:35:37.660Z,21.53
2018-11-23T18:38:07.669Z,25.72
2018-11-23T18:40:37.753Z,22.33
2018-11-23T18:43:06.123Z,24.43
2018-11-23T18:45:34.679Z,23.07
2018-11-23T18:48:03.216Z,22.23
2018-11-23T18:50:31.710Z,24.50
2018-11-23T18:53:00.270Z,24.03
2018-11-23T18:55:28.816Z,27.93
2018-11-23T18:57:58.796Z,27.83
2018-11-23T19:00:27.722Z,27.50
2018-11-23T19:02:56.229Z,31.13
2018-11-23T19:05:26.451Z,27.30
2018-11-23T19:07:55.656Z,37.25
2018-11-23T19:10:25.551Z,28.27
2018-11-23T19:12:54.254Z,38.67
2018-11-23T19:15:25.462Z,37.47
2018-11-23T19:17:52.558Z,44.93
2018-11-23T19:20:23.033Z,37.23
2018-11-23T19:22:53.191Z,37.20
2018-11-23T19:25:21.818Z,33.27
2018-11-23T19:27:50.448Z,34.57
2018-11-23T19:30:27.737Z,28.37
2018-11-23T19:32:49.467Z,28.90
2018-11-23T19:35:18.027Z,31.77
2018-11-23T19:37:46.941Z,25.93
2018-11-23T19:40:16.053Z,31.53
2018-11-23T19:42:45.359Z,30.80
2018-11-23T19:45:15.049Z,40.97
2018-11-23T19:47:43.624Z,45.90
2018-11-23T19:50:16.937Z,41.33
2018-11-23T19:52:45.836Z,42.67
2018-11-23T19:55:15.397Z,34.27
2018-11-23T19:57:44.163Z,25.83
2018-11-23T20:00:25.553Z,21.47
2018-11-23T20:02:54.249Z,21.60
2018-11-23T20:05:23.112Z,22.63
2018-11-23T20:07:53.901Z,26.80
2018-11-23T20:10:23.383Z,24.80
2018-11-23T20:12:53.436Z,23.57
2018-11-23T20:15:22.106Z,20.33
2018-11-23T20:17:51.152Z,24.87
2018-11-23T20:20:19.782Z,22.63
2018-11-23T20:22:49.452Z,21.13
2018-11-23T20:25:19.096Z,19.07
2018-11-23T20:27:48.839Z,21.47
2018-11-23T20:30:18.254Z,17.60
2018-11-23T20:32:47.367Z,19.70
2018-11-23T20:35:17.141Z,20.53
2018-11-23T20:37:45.815Z,20.07
2018-11-23T20:40:19.313Z,21.93
2018-11-23T20:42:48.006Z,20.87
2018-11-23T20:45:16.599Z,21.33
2018-11-23T20:47:45.144Z,21.77
2018-11-23T20:50:14.941Z,20.80
2018-11-23T20:52:43.505Z,20.00
2018-11-23T20:55:17.098Z,21.17
2018-11-23T20:57:46.120Z,21.67
2018-11-23T21:00:18.113Z,20.90
2018-11-23T21:02:47.757Z,20.43
2018-11-23T21:05:17.723Z,23.87
2018-11-23T21:07:46.223Z,20.23
2018-11-23T21:10:24.339Z,20.07
2018-11-23T21:12:53.248Z,17.53
2018-11-23T21:15:23.932Z,18.63
2018-11-23T21:17:52.477Z,19.80
2018-11-23T21:20:21.000Z,18.33
2018-11-23T21:22:49.571Z,20.67
2018-11-23T21:25:18.092Z,19.33
2018-11-23T21:27:46.608Z,22.60
2018-11-23T21:30:18.364Z,25.57
2018-11-23T21:32:46.881Z,25.77
2018-11-23T21:35:15.896Z,26.60
2018-11-23T21:37:44.430Z,18.37
2018-11-23T21:40:13.957Z,20.00
2018-11-23T21:42:42.515Z,20.90
2018-11-23T21:45:13.238Z,20.73
2018-11-23T21:47:41.723Z,21.40
2018-11-23T21:50:11.429Z,21.47
2018-11-23T21:52:39.984Z,19.20
2018-11-23T21:55:11.030Z,21.70
2018-11-23T21:57:39.570Z,28.10
2018-11-23T22:00:10.043Z,23.63
2018-11-23T22:02:38.532Z,23.00
2018-11-23T22:05:07.575Z,20.67
2018-11-23T22:07:36.090Z,22.03
2018-11-23T22:10:09.675Z,26.20
2018-11-23T22:12:38.244Z,24.37
2018-11-23T22:15:09.224Z,23.20
2018-11-23T22:17:37.813Z,21.87
2018-11-23T22:20:13.941Z,22.37
2018-11-23T22:22:42.450Z,20.53
2018-11-23T22:25:13.241Z,21.73
2018-11-23T22:27:41.885Z,22.20
2018-11-23T22:30:15.791Z,24.40
2018-11-23T22:32:44.308Z,21.13
2018-11-23T22:35:13.298Z,24.57
2018-11-23T22:37:41.999Z,28.30
2018-11-23T22:40:12.537Z,31.57
2018-11-23T22:42:41.873Z,26.80
2018-11-23T22:45:11.612Z,30.83
2018-11-23T22:47:40.179Z,23.30
2018-11-23T22:50:12.141Z,23.40
2018-11-23T22:52:40.675Z,26.10
2018-11-23T22:55:10.429Z,31.27
2018-11-23T22:57:39.010Z,28.07
2018-11-23T23:00:25.251Z,28.53
2018-11-23T23:02:53.813Z,31.30
2018-11-23T23:05:24.244Z,35.07
2018-11-23T23:07:52.733Z,32.73
2018-11-23T23:10:21.241Z,31.83
2018-11-23T23:12:49.725Z,28.47
2018-11-23T23:15:18.259Z,31.17
2018-11-23T23:17:46.845Z,31.90
2018-11-23T23:20:17.644Z,31.43
2018-11-23T23:22:46.177Z,36.20
2018-11-23T23:25:14.661Z,43.40
2018-11-23T23:27:43.168Z,38.70
2018-11-23T23:30:14.647Z,43.97
2018-11-23T23:32:43.243Z,36.63
2018-11-23T23:35:13.520Z,43.00
2018-11-23T23:37:43.053Z,40.83
2018-11-23T23:40:13.613Z,41.40
2018-11-23T23:42:42.139Z,36.53
2018-11-23T23:45:18.238Z,31.70
2018-11-23T23:47:46.795Z,37.80
2018-11-23T23:50:19.221Z,34.57
2018-11-23T23:52:47.749Z,29.90
2018-11-23T23:55:16.256Z,37.13
2018-11-23T23:57:45.725Z,31.37
